Time;durP1;ratioP1;P1;durP2;ratioP2;P2;SDS_P1;SDS_P2;PMS_P1;PMS_P2;Temp;Humidity;BMP_temperature;BMP_pressure;BME280_temperature;BME280_humidity;BME280_pressure;Samples;Min_cycle;Max_cycle;Signal;HPM_P1;HPM_P2
2024/03/22 00:01:48;;;;;;;17.95;9.65;;;;;;;;;;5032500;28;20035;-65
2024/03/22 00:04:14;;;;;;;14.93;8.50;;;;;;;;;;5032166;28;20415;-64
2024/03/22 00:06:43;;;;;;;14.05;9.30;;;;;;;;;;5031824;28;20066;-66
2024/03/22 00:09:10;;;;;;;12.82;8.15;;;;;;;;;;5033537;28;20091;-65
2024/03/22 00:11:35;;;;;;;17.55;8.45;;;;;;;;;;5033241;28;20096;-65
2024/03/22 00:14:01;;;;;;;15.57;8.98;;;;;;;;;;5033249;28;20033;-65
2024/03/22 00:16:27;;;;;;;20.52;8.38;;;;;;;;;;5031947;28;20041;-65
2024/03/22 00:18:53;;;;;;;16.05;8.85;;;;;;;;;;5031871;28;20503;-65
2024/03/22 00:21:18;;;;;;;11.52;8.02;;;;;;;;;;5033343;28;20041;-65
2024/03/22 00:23:45;;;;;;;17.48;8.07;;;;;;;;;;5033303;28;20064;-64
2024/03/22 00:26:10;;;;;;;14.48;8.40;;;;;;;;;;5032101;28;20038;-66
2024/03/22 00:28:36;;;;;;;17.67;8.15;;;;;;;;;;5031520;28;20509;-64
2024/03/22 00:31:01;;;;;;;14.23;7.75;;;;;;;;;;5033167;28;20045;-63
2024/03/22 00:33:27;;;;;;;15.82;8.18;;;;;;;;;;5031641;28;20041;-64
2024/03/22 00:35:53;;;;;;;15.10;7.88;;;;;;;;;;5031862;28;20494;-65
2024/03/22 00:38:18;;;;;;;15.70;8.05;;;;;;;;;;5032676;28;20487;-64
2024/03/22 00:40:44;;;;;;;15.23;8.13;;;;;;;;;;5032941;28;20042;-64
2024/03/22 00:43:09;;;;;;;20.35;8.80;;;;;;;;;;5031378;28;20033;-65
2024/03/22 00:45:35;;;;;;;16.17;8.95;;;;;;;;;;5015284;28;20388;-65
2024/03/22 00:48:01;;;;;;;16.88;8.43;;;;;;;;;;5032903;28;20049;-64
2024/03/22 00:50:27;;;;;;;19.52;8.57;;;;;;;;;;5032909;28;20463;-63
2024/03/22 00:52:56;;;;;;;17.45;8.23;;;;;;;;;;5031312;28;20040;-64
2024/03/22 00:55:22;;;;;;;14.10;7.55;;;;;;;;;;5032928;28;20030;-65
2024/03/22 00:57:47;;;;;;;15.73;7.30;;;;;;;;;;5032370;28;20038;-66
2024/03/22 01:00:14;;;;;;;14.15;7.88;;;;;;;;;;5031313;28;20065;-64
2024/03/22 01:02:40;;;;;;;11.80;7.85;;;;;;;;;;5030011;28;20069;-65
2024/03/22 01:05:05;;;;;;;12.90;7.55;;;;;;;;;;5028167;28;20025;-64
2024/03/22 01:07:31;;;;;;;19.35;8.70;;;;;;;;;;5031047;28;20091;-64
2024/03/22 01:09:57;;;;;;;14.68;8.13;;;;;;;;;;5032452;28;20388;-64
2024/03/22 01:12:22;;;;;;;15.88;8.23;;;;;;;;;;5032476;28;20048;-66
2024/03/22 01:14:48;;;;;;;15.32;8.38;;;;;;;;;;5032072;28;20045;-65
2024/03/22 01:17:13;;;;;;;15.93;8.25;;;;;;;;;;5032294;28;20411;-65
2024/03/22 01:19:39;;;;;;;17.42;8.50;;;;;;;;;;5032319;28;20104;-64
2024/03/22 01:22:05;;;;;;;16.85;8.50;;;;;;;;;;5031945;28;20041;-64
2024/03/22 01:24:30;;;;;;;16.98;8.85;;;;;;;;;;5030725;28;20037;-65
2024/03/22 01:26:56;;;;;;;16.08;7.97;;;;;;;;;;5030562;28;20419;-64
2024/03/22 01:29:21;;;;;;;18.83;8.60;;;;;;;;;;5031696;28;20056;-64
2024/03/22 01:31:47;;;;;;;17.33;8.32;;;;;;;;;;5032087;28;20044;-64
2024/03/22 01:34:13;;;;;;;16.35;8.63;;;;;;;;;;5030715;28;20502;-64
2024/03/22 01:36:39;;;;;;;18.50;8.52;;;;;;;;;;5031952;28;20072;-64
2024/03/22 01:39:04;;;;;;;19.13;8.73;;;;;;;;;;5031855;28;20073;-64
2024/03/22 01:41:30;;;;;;;13.93;8.00;;;;;;;;;;5031901;28;20069;-65
2024/03/22 01:43:56;;;;;;;16.27;8.45;;;;;;;;;;5031666;28;20124;-64
2024/03/22 01:46:21;;;;;;;13.10;7.72;;;;;;;;;;5031571;28;20036;-64
2024/03/22 01:48:47;;;;;;;15.02;7.32;;;;;;;;;;5031694;28;20128;-63
2024/03/22 01:51:13;;;;;;;14.40;7.35;;;;;;;;;;5030568;28;20034;-65
2024/03/22 01:53:39;;;;;;;16.52;7.93;;;;;;;;;;5030102;28;20057;-64
2024/03/22 01:56:05;;;;;;;13.82;7.70;;;;;;;;;;5031531;28;20095;-65
2024/03/22 01:58:31;;;;;;;12.43;7.70;;;;;;;;;;5030475;28;20033;-65
2024/03/22 02:00:57;;;;;;;15.20;7.75;;;;;;;;;;4996816;28;20392;-65
2024/03/22 02:03:22;;;;;;;14.80;7.93;;;;;;;;;;5029784;28;20030;-64
2024/03/22 02:05:48;;;;;;;12.68;7.07;;;;;;;;;;5031424;28;20040;-63
2024/03/22 02:08:13;;;;;;;13.45;7.78;;;;;;;;;;5029891;28;20200;-63
2024/03/22 02:10:39;;;;;;;10.95;6.47;;;;;;;;;;5031440;28;20057;-65
2024/03/22 02:13:05;;;;;;;13.02;7.88;;;;;;;;;;5031288;28;20522;-64
2024/03/22 02:15:31;;;;;;;13.45;7.82;;;;;;;;;;5029997;28;20087;-63
2024/03/22 02:18:16;;;;;;;16.88;8.32;;;;;;;;;;5016617;28;20057;-64
2024/03/22 02:20:42;;;;;;;9.73;7.47;;;;;;;;;;5029746;28;20044;-63
2024/03/22 02:23:07;;;;;;;19.83;7.03;;;;;;;;;;5029946;28;20046;-64
2024/03/22 02:25:33;;;;;;;17.67;8.43;;;;;;;;;;5029883;28;20048;-66
2024/03/22 02:27:59;;;;;;;18.77;8.50;;;;;;;;;;5031608;28;20045;-63
2024/03/22 02:30:24;;;;;;;14.20;7.93;;;;;;;;;;5029865;28;20061;-64
2024/03/22 02:32:50;;;;;;;15.85;8.07;;;;;;;;;;5030975;28;20037;-63
2024/03/22 02:35:15;;;;;;;16.88;8.20;;;;;;;;;;5031611;28;20111;-64
2024/03/22 02:37:41;;;;;;;14.35;7.85;;;;;;;;;;5029797;28;20049;-63
2024/03/22 02:40:07;;;;;;;12.50;7.55;;;;;;;;;;5031434;28;20030;-64
2024/03/22 02:42:32;;;;;;;21.33;8.50;;;;;;;;;;5030997;28;20537;-63
2024/03/22 02:44:58;;;;;;;12.52;7.38;;;;;;;;;;5031401;28;20034;-64
2024/03/22 02:47:23;;;;;;;15.95;8.05;;;;;;;;;;5031282;28;20041;-65
2024/03/22 02:49:49;;;;;;;13.98;7.90;;;;;;;;;;5031129;28;20469;-63
2024/03/22 02:52:15;;;;;;;17.40;8.20;;;;;;;;;;5013173;28;20041;-62
2024/03/22 02:54:41;;;;;;;14.32;8.45;;;;;;;;;;5030249;28;20057;-63
2024/03/22 02:57:06;;;;;;;15.90;8.45;;;;;;;;;;5030222;28;20048;-65
2024/03/22 02:59:32;;;;;;;19.83;9.07;;;;;;;;;;5028277;28;20071;-64
2024/03/22 03:01:58;;;;;;;16.85;8.73;;;;;;;;;;5028852;28;20465;-64
2024/03/22 03:04:23;;;;;;;18.20;9.10;;;;;;;;;;5028636;28;20041;-64
2024/03/22 03:06:49;;;;;;;19.67;8.57;;;;;;;;;;5029778;28;20041;-64
2024/03/22 03:09:15;;;;;;;16.35;8.85;;;;;;;;;;5030032;28;20049;-65
2024/03/22 03:11:41;;;;;;;16.00;9.00;;;;;;;;;;5029803;28;20068;-66
2024/03/22 03:14:07;;;;;;;14.98;8.35;;;;;;;;;;5014806;28;20119;-64
2024/03/22 03:16:32;;;;;;;19.30;9.15;;;;;;;;;;5031842;28;20487;-63
2024/03/22 03:18:58;;;;;;;15.13;8.80;;;;;;;;;;5033309;28;20044;-65
2024/03/22 03:21:23;;;;;;;16.23;9.15;;;;;;;;;;5031874;28;20044;-64
2024/03/22 03:23:49;;;;;;;14.65;8.57;;;;;;;;;;5033161;28;20542;-64
2024/03/22 03:26:15;;;;;;;15.90;8.73;;;;;;;;;;5015223;28;20119;-63
2024/03/22 03:28:40;;;;;;;18.40;9.88;;;;;;;;;;5032735;28;20068;-65
2024/03/22 03:31:06;;;;;;;14.70;9.43;;;;;;;;;;5031644;28;20038;-65
2024/03/22 03:33:32;;;;;;;16.88;9.63;;;;;;;;;;5033037;28;20360;-64
2024/03/22 03:35:57;;;;;;;20.88;10.50;;;;;;;;;;5033144;28;20045;-65
2024/03/22 03:38:23;;;;;;;21.10;10.32;;;;;;;;;;5033006;28;20037;-63
2024/03/22 03:40:48;;;;;;;17.30;9.50;;;;;;;;;;5031474;28;20044;-65
2024/03/22 03:43:14;;;;;;;18.15;9.32;;;;;;;;;;5032836;28;20509;-65
2024/03/22 03:45:40;;;;;;;17.45;9.90;;;;;;;;;;5032700;28;20518;-65
2024/03/22 03:48:06;;;;;;;24.95;10.60;;;;;;;;;;5032742;28;20045;-63
2024/03/22 03:50:31;;;;;;;17.10;9.38;;;;;;;;;;5032203;28;20032;-64
2024/03/22 03:52:57;;;;;;;25.10;10.17;;;;;;;;;;4990048;28;1191019;-65
2024/03/22 03:55:23;;;;;;;23.45;10.48;;;;;;;;;;5034134;28;20029;-63
2024/03/22 03:57:52;;;;;;;16.33;10.07;;;;;;;;;;5033754;28;20041;-63
2024/03/22 04:00:19;;;;;;;18.73;10.90;;;;;;;;;;5032562;28;20083;-63
2024/03/22 04:02:44;;;;;;;16.73;9.73;;;;;;;;;;5033689;28;20033;-64
2024/03/22 04:05:10;;;;;;;20.23;10.77;;;;;;;;;;5033648;28;20439;-64
2024/03/22 04:07:35;;;;;;;16.95;10.30;;;;;;;;;;5033296;28;20045;-64
2024/03/22 04:10:02;;;;;;;18.00;10.45;;;;;;;;;;5033603;28;20037;-63
2024/03/22 04:12:29;;;;;;;20.80;11.57;;;;;;;;;;5032280;28;20156;-67
2024/03/22 04:14:55;;;;;;;18.25;10.77;;;;;;;;;;5033351;28;20149;-64
2024/03/22 04:17:21;;;;;;;16.33;10.45;;;;;;;;;;5033342;28;20045;-66
2024/03/22 04:19:49;;;;;;;20.52;11.55;;;;;;;;;;5033057;28;20041;-64
2024/03/22 04:22:14;;;;;;;25.90;11.05;;;;;;;;;;5032900;28;20133;-64
2024/03/22 04:24:40;;;;;;;18.63;11.20;;;;;;;;;;5032504;28;20120;-63
2024/03/22 04:27:07;;;;;;;17.48;11.05;;;;;;;;;;5033179;28;20041;-66
2024/03/22 04:29:32;;;;;;;20.50;11.63;;;;;;;;;;5033094;28;20053;-63
2024/03/22 04:31:58;;;;;;;23.60;11.68;;;;;;;;;;5032976;28;20396;-65
2024/03/22 04:34:23;;;;;;;22.20;11.13;;;;;;;;;;5033090;28;20037;-64
2024/03/22 04:36:51;;;;;;;20.35;10.88;;;;;;;;;;5048102;28;20037;-64
2024/03/22 04:39:19;;;;;;;20.40;11.85;;;;;;;;;;5032882;28;20033;-63
2024/03/22 04:41:44;;;;;;;18.20;11.25;;;;;;;;;;5032596;28;20033;-66
2024/03/22 04:44:10;;;;;;;19.40;10.75;;;;;;;;;;5064504;28;20129;-64
2024/03/22 04:46:36;;;;;;;23.85;11.82;;;;;;;;;;5032475;28;20049;-65
2024/03/22 04:49:01;;;;;;;20.17;11.38;;;;;;;;;;5032663;28;20037;-65
2024/03/22 04:51:27;;;;;;;18.85;11.05;;;;;;;;;;5031231;28;20041;-65
2024/03/22 04:53:52;;;;;;;19.63;11.57;;;;;;;;;;5032331;28;20430;-66
2024/03/22 04:56:18;;;;;;;21.75;12.77;;;;;;;;;;5032771;28;20141;-67
2024/03/22 04:58:43;;;;;;;20.23;11.60;;;;;;;;;;5032319;28;20025;-64
2024/03/22 05:01:09;;;;;;;24.92;12.18;;;;;;;;;;5032483;28;20519;-66
2024/03/22 05:03:36;;;;;;;19.98;11.18;;;;;;;;;;5063766;28;20064;-64
2024/03/22 05:06:03;;;;;;;19.27;11.10;;;;;;;;;;5032449;28;20072;-63
2024/03/22 05:08:29;;;;;;;22.98;12.52;;;;;;;;;;5029840;28;20071;-66
2024/03/22 05:10:54;;;;;;;23.75;13.05;;;;;;;;;;5030525;28;20037;-64
2024/03/22 05:13:20;;;;;;;20.90;12.48;;;;;;;;;;5020934;28;20056;-65
2024/03/22 05:15:46;;;;;;;23.10;12.18;;;;;;;;;;5029068;28;20064;-65
2024/03/22 05:18:12;;;;;;;21.90;12.75;;;;;;;;;;4995494;28;20124;-64
2024/03/22 05:20:37;;;;;;;23.48;12.50;;;;;;;;;;5032119;28;20099;-65
2024/03/22 05:23:03;;;;;;;23.35;12.05;;;;;;;;;;5031949;28;20041;-63
2024/03/22 05:25:29;;;;;;;24.52;11.68;;;;;;;;;;5032229;28;20027;-65
2024/03/22 05:27:54;;;;;;;26.70;12.82;;;;;;;;;;5031807;28;20037;-65
2024/03/22 05:30:20;;;;;;;22.95;13.63;;;;;;;;;;5030830;28;20075;-65
2024/03/22 05:32:45;;;;;;;18.75;12.18;;;;;;;;;;5031662;28;20048;-66
2024/03/22 05:35:11;;;;;;;20.55;12.20;;;;;;;;;;5023095;28;20530;-65
2024/03/22 05:37:37;;;;;;;21.02;13.45;;;;;;;;;;5029808;28;20094;-66
2024/03/22 05:40:04;;;;;;;23.38;12.20;;;;;;;;;;5031551;28;20029;-66
2024/03/22 05:42:30;;;;;;;19.33;12.30;;;;;;;;;;5023263;28;20073;-64
2024/03/22 05:44:56;;;;;;;23.35;12.93;;;;;;;;;;5031324;28;20037;-63
2024/03/22 05:47:22;;;;;;;20.88;12.50;;;;;;;;;;5031633;28;20045;-63
2024/03/22 05:49:48;;;;;;;23.70;12.63;;;;;;;;;;5032539;28;20037;-66
2024/03/22 05:52:14;;;;;;;23.95;12.30;;;;;;;;;;5029678;28;20034;-65
2024/03/22 05:54:39;;;;;;;22.08;11.80;;;;;;;;;;5031065;28;20057;-63
2024/03/22 05:57:05;;;;;;;24.65;12.57;;;;;;;;;;5029625;28;20069;-65
2024/03/22 05:59:31;;;;;;;18.00;12.43;;;;;;;;;;5051314;28;20116;-62
2024/03/22 06:01:57;;;;;;;32.55;13.02;;;;;;;;;;5011783;28;20042;-63
2024/03/22 06:04:23;;;;;;;19.10;12.48;;;;;;;;;;5024301;28;20039;-65
2024/03/22 06:06:49;;;;;;;22.42;13.32;;;;;;;;;;5031526;28;20037;-65
2024/03/22 06:09:23;;;;;;;24.13;13.00;;;;;;;;;;5029878;28;20046;-65
2024/03/22 06:11:52;;;;;;;23.48;12.95;;;;;;;;;;5030714;28;20124;-67
2024/03/22 06:14:18;;;;;;;25.40;13.85;;;;;;;;;;5019992;28;20049;-66
2024/03/22 06:16:43;;;;;;;20.13;12.77;;;;;;;;;;5037364;28;20057;-65
2024/03/22 06:19:09;;;;;;;26.27;13.43;;;;;;;;;;5030316;28;20124;-67
2024/03/22 06:21:35;;;;;;;24.08;14.65;;;;;;;;;;5029220;28;20082;-67
2024/03/22 06:24:01;;;;;;;24.98;13.57;;;;;;;;;;5028027;28;20033;-64
2024/03/22 06:26:26;;;;;;;22.83;14.43;;;;;;;;;;5030818;28;20069;-65
2024/03/22 06:28:52;;;;;;;27.67;14.98;;;;;;;;;;5030457;28;20528;-64
2024/03/22 06:31:18;;;;;;;29.30;16.15;;;;;;;;;;5029557;28;20037;-65
2024/03/22 06:33:43;;;;;;;25.65;14.13;;;;;;;;;;5030815;28;20033;-63
2024/03/22 06:36:09;;;;;;;25.40;14.98;;;;;;;;;;5029958;28;20037;-65
2024/03/22 06:38:34;;;;;;;31.85;15.50;;;;;;;;;;5030504;28;20175;-64
2024/03/22 06:41:00;;;;;;;23.85;13.98;;;;;;;;;;5029448;28;20041;-65
2024/03/22 06:43:26;;;;;;;23.73;14.95;;;;;;;;;;5030324;28;20049;-65
2024/03/22 06:45:51;;;;;;;23.33;14.38;;;;;;;;;;5029504;28;20503;-65
2024/03/22 06:48:17;;;;;;;25.85;15.50;;;;;;;;;;5030751;28;20068;-65
2024/03/22 06:50:43;;;;;;;30.67;15.80;;;;;;;;;;5033161;28;20068;-66
2024/03/22 06:53:10;;;;;;;27.67;15.50;;;;;;;;;;5032913;28;20135;-64
2024/03/22 06:55:36;;;;;;;28.27;15.85;;;;;;;;;;5033377;28;20113;-64
2024/03/22 06:58:02;;;;;;;31.25;15.85;;;;;;;;;;5032808;28;20057;-64
2024/03/22 07:00:27;;;;;;;31.15;15.82;;;;;;;;;;5034871;28;20426;-65
2024/03/22 07:02:55;;;;;;;29.63;14.65;;;;;;;;;;5034184;28;20037;-63
2024/03/22 07:05:21;;;;;;;25.83;15.73;;;;;;;;;;5033097;28;20026;-64
2024/03/22 07:07:47;;;;;;;28.88;15.73;;;;;;;;;;5034312;28;20029;-61
2024/03/22 07:10:13;;;;;;;28.77;15.43;;;;;;;;;;5000091;28;20099;-65
2024/03/22 07:12:39;;;;;;;29.75;15.98;;;;;;;;;;5034751;28;20030;-62
2024/03/22 07:15:05;;;;;;;31.00;15.23;;;;;;;;;;4999783;28;20029;-64
2024/03/22 07:17:32;;;;;;;24.98;15.02;;;;;;;;;;5031584;28;20034;-64
2024/03/22 07:19:57;;;;;;;29.58;14.80;;;;;;;;;;5032847;28;20086;-64
2024/03/22 07:22:23;;;;;;;35.28;14.60;;;;;;;;;;5033072;28;20125;-63
2024/03/22 07:24:51;;;;;;;23.90;14.20;;;;;;;;;;5031947;28;20441;-65
2024/03/22 07:27:16;;;;;;;20.00;13.70;;;;;;;;;;5032971;28;20041;-65
2024/03/22 07:29:42;;;;;;;25.15;13.65;;;;;;;;;;5032890;28;20486;-63
2024/03/22 07:32:07;;;;;;;21.95;13.73;;;;;;;;;;5065791;28;20038;-64
2024/03/22 07:34:33;;;;;;;29.75;13.80;;;;;;;;;;5033943;28;20048;-65
2024/03/22 07:36:59;;;;;;;27.95;14.00;;;;;;;;;;5034120;28;20442;-66
2024/03/22 07:39:25;;;;;;;27.45;12.70;;;;;;;;;;5033847;28;20491;-64
2024/03/22 07:41:50;;;;;;;20.95;12.32;;;;;;;;;;5032377;28;20502;-66
2024/03/22 07:44:26;;;;;;;23.15;12.27;;;;;;;;;;5032222;28;20069;-65
2024/03/22 07:46:52;;;;;;;20.92;11.95;;;;;;;;;;5032789;28;20034;-64
2024/03/22 07:49:18;;;;;;;20.88;10.95;;;;;;;;;;5031915;28;20041;-63
2024/03/22 07:51:44;;;;;;;22.65;11.15;;;;;;;;;;5033744;28;20033;-64
2024/03/22 07:54:09;;;;;;;24.63;11.43;;;;;;;;;;5064940;28;20053;-63
2024/03/22 07:56:35;;;;;;;22.65;10.93;;;;;;;;;;5033667;28;20491;-65
2024/03/22 07:59:00;;;;;;;22.63;11.82;;;;;;;;;;5030578;28;20120;-62
2024/03/22 08:01:26;;;;;;;24.45;12.38;;;;;;;;;;5031956;28;20045;-65
2024/03/22 08:03:52;;;;;;;20.08;11.88;;;;;;;;;;5032997;28;20033;-64
2024/03/22 08:06:18;;;;;;;21.23;11.40;;;;;;;;;;5031965;28;20454;-64
2024/03/22 08:08:43;;;;;;;22.85;11.88;;;;;;;;;;5033383;28;20107;-63
2024/03/22 08:11:09;;;;;;;22.92;12.07;;;;;;;;;;5033123;28;20057;-66
2024/03/22 08:13:35;;;;;;;26.40;12.25;;;;;;;;;;5015279;28;20029;-65
2024/03/22 08:16:01;;;;;;;22.23;12.70;;;;;;;;;;5028423;28;20076;-65
2024/03/22 08:18:26;;;;;;;27.25;12.65;;;;;;;;;;5023287;28;20036;-64
2024/03/22 08:20:52;;;;;;;21.65;12.48;;;;;;;;;;5021570;28;20029;-66
2024/03/22 08:23:20;;;;;;;24.33;12.27;;;;;;;;;;5022054;28;20120;-63
2024/03/22 08:25:46;;;;;;;19.80;12.73;;;;;;;;;;5032472;28;20030;-64
2024/03/22 08:28:13;;;;;;;25.10;13.00;;;;;;;;;;5031546;28;22031;-64
2024/03/22 08:30:39;;;;;;;24.40;13.32;;;;;;;;;;5032783;28;20056;-66
2024/03/22 08:33:05;;;;;;;24.48;12.63;;;;;;;;;;5032536;28;20033;-63
2024/03/22 08:35:30;;;;;;;28.10;13.25;;;;;;;;;;5031330;28;20025;-68
2024/03/22 08:37:56;;;;;;;27.92;12.52;;;;;;;;;;5032413;28;20045;-66
2024/03/22 08:40:22;;;;;;;24.05;12.57;;;;;;;;;;5032169;28;20513;-66
2024/03/22 08:42:48;;;;;;;19.80;12.85;;;;;;;;;;5047797;28;20179;-68
2024/03/22 08:45:14;;;;;;;26.30;13.95;;;;;;;;;;5032433;28;20124;-66
2024/03/22 08:47:40;;;;;;;30.92;14.27;;;;;;;;;;5032631;28;20123;-66
2024/03/22 08:50:06;;;;;;;27.45;14.30;;;;;;;;;;5032489;28;20048;-65
2024/03/22 08:52:34;;;;;;;34.13;14.80;;;;;;;;;;5031197;28;20034;-65
2024/03/22 08:54:59;;;;;;;30.25;15.20;;;;;;;;;;5031779;28;20515;-65
2024/03/22 08:57:25;;;;;;;30.17;14.65;;;;;;;;;;5032541;28;20048;-66
2024/03/22 08:59:50;;;;;;;23.38;13.70;;;;;;;;;;5030746;28;20033;-66
2024/03/22 09:02:16;;;;;;;28.25;13.45;;;;;;;;;;5032193;28;20629;-65
2024/03/22 09:04:42;;;;;;;20.27;12.02;;;;;;;;;;5030614;28;20060;-66
2024/03/22 09:07:07;;;;;;;21.05;13.13;;;;;;;;;;5032375;28;20037;-65
2024/03/22 09:09:33;;;;;;;18.85;11.10;;;;;;;;;;5031956;28;20502;-66
2024/03/22 09:11:59;;;;;;;18.92;10.80;;;;;;;;;;5031540;28;20033;-66
2024/03/22 09:14:24;;;;;;;19.10;10.38;;;;;;;;;;5058557;28;20034;-65
2024/03/22 09:16:50;;;;;;;17.88;10.15;;;;;;;;;;5012097;28;20037;-67
2024/03/22 09:19:16;;;;;;;18.50;10.48;;;;;;;;;;5014345;28;20372;-67
2024/03/22 09:21:42;;;;;;;18.10;8.90;;;;;;;;;;5030932;28;20041;-68
2024/03/22 09:24:07;;;;;;;15.93;9.68;;;;;;;;;;5031845;28;20099;-66
2024/03/22 09:26:33;;;;;;;21.60;10.07;;;;;;;;;;5031684;28;20514;-66
2024/03/22 09:28:59;;;;;;;18.05;9.13;;;;;;;;;;5031363;28;20124;-66
2024/03/22 09:31:24;;;;;;;18.55;9.77;;;;;;;;;;5031626;28;20060;-67
2024/03/22 09:33:50;;;;;;;17.25;9.45;;;;;;;;;;5030263;28;20033;-65
2024/03/22 09:36:15;;;;;;;19.90;9.32;;;;;;;;;;5031833;28;20051;-65
2024/03/22 09:38:41;;;;;;;16.95;8.50;;;;;;;;;;5030583;28;20040;-65
2024/03/22 09:41:07;;;;;;;17.95;10.07;;;;;;;;;;5031184;28;20086;-65
2024/03/22 09:43:33;;;;;;;14.73;8.80;;;;;;;;;;5031639;28;20544;-65
2024/03/22 09:45:59;;;;;;;17.83;8.43;;;;;;;;;;5030103;28;20518;-65
2024/03/22 09:48:26;;;;;;;13.95;8.55;;;;;;;;;;5031034;28;20102;-64
2024/03/22 09:50:52;;;;;;;17.38;9.35;;;;;;;;;;5029673;28;20471;-65
2024/03/22 09:53:19;;;;;;;13.13;8.05;;;;;;;;;;5030989;28;20195;-63
2024/03/22 09:55:47;;;;;;;16.98;9.18;;;;;;;;;;5031113;28;20041;-63
2024/03/22 09:58:13;;;;;;;12.32;7.50;;;;;;;;;;5031132;28;20123;-62
2024/03/22 10:00:40;;;;;;;12.75;7.95;;;;;;;;;;5031095;28;20041;-64
2024/03/22 10:03:09;;;;;;;13.30;7.32;;;;;;;;;;5030978;28;20043;-63
2024/03/22 10:05:43;;;;;;;13.00;7.85;;;;;;;;;;4997953;28;20034;-64
2024/03/22 10:08:09;;;;;;;13.15;7.18;;;;;;;;;;5032163;28;20119;-63
2024/03/22 10:10:35;;;;;;;21.65;7.43;;;;;;;;;;5028601;28;20045;-67
2024/03/22 10:13:01;;;;;;;12.63;7.60;;;;;;;;;;5030145;28;20491;-63
2024/03/22 10:15:30;;;;;;;15.05;7.53;;;;;;;;;;5030028;28;20037;-61
2024/03/22 10:17:58;;;;;;;14.05;7.00;;;;;;;;;;4992281;28;20042;-64
2024/03/22 10:20:24;;;;;;;12.27;7.60;;;;;;;;;;5019183;28;20083;-61
2024/03/22 10:22:58;;;;;;;16.13;6.90;;;;;;;;;;5062389;28;20522;-64
2024/03/22 10:25:23;;;;;;;15.70;7.18;;;;;;;;;;5035500;28;20503;-63
2024/03/22 10:27:50;;;;;;;21.63;8.07;;;;;;;;;;5032998;28;20045;-64
2024/03/22 10:30:18;;;;;;;13.38;7.40;;;;;;;;;;5033315;28;20494;-63
2024/03/22 10:32:46;;;;;;;12.45;6.88;;;;;;;;;;5031904;28;20087;-62
2024/03/22 10:35:13;;;;;;;15.43;7.63;;;;;;;;;;5005927;28;20034;-64
2024/03/22 10:37:41;;;;;;;12.93;7.50;;;;;;;;;;5027859;28;20056;-63
2024/03/22 10:40:08;;;;;;;14.90;7.53;;;;;;;;;;5035084;28;20037;-63
2024/03/22 10:42:37;;;;;;;16.20;7.38;;;;;;;;;;5034644;28;20041;-63
2024/03/22 10:45:04;;;;;;;13.68;7.88;;;;;;;;;;5033290;28;20120;-63
2024/03/22 10:47:32;;;;;;;13.60;7.20;;;;;;;;;;5034022;28;20037;-63
2024/03/22 10:50:08;;;;;;;13.88;7.20;;;;;;;;;;5016712;28;20053;-63
2024/03/22 10:52:37;;;;;;;11.73;7.10;;;;;;;;;;5033857;28;20499;-63
2024/03/22 10:55:08;;;;;;;20.42;7.03;;;;;;;;;;5034593;28;20049;-62
2024/03/22 10:57:37;;;;;;;12.65;7.10;;;;;;;;;;5034223;28;20599;-66
2024/03/22 11:00:09;;;;;;;10.30;6.38;;;;;;;;;;5034900;28;20033;-63
2024/03/22 11:02:35;;;;;;;15.02;6.97;;;;;;;;;;5034438;28;20036;-65
2024/03/22 11:05:01;;;;;;;13.52;6.70;;;;;;;;;;5034593;28;20033;-62
2024/03/22 11:07:30;;;;;;;13.60;6.60;;;;;;;;;;5034187;28;20486;-62
2024/03/22 11:09:58;;;;;;;10.15;6.60;;;;;;;;;;5016688;28;20059;-63
2024/03/22 11:12:25;;;;;;;12.70;7.38;;;;;;;;;;5034060;28;20041;-64
2024/03/22 11:14:51;;;;;;;15.30;6.65;;;;;;;;;;5033664;28;20044;-64
2024/03/22 11:17:17;;;;;;;15.25;6.55;;;;;;;;;;5034142;28;20049;-62
2024/03/22 11:19:43;;;;;;;9.40;6.22;;;;;;;;;;5034431;28;20103;-63
2024/03/22 11:22:09;;;;;;;10.73;6.13;;;;;;;;;;5032689;28;20033;-64
2024/03/22 11:24:37;;;;;;;9.55;5.78;;;;;;;;;;5016260;28;20061;-63
2024/03/22 11:27:02;;;;;;;10.95;5.60;;;;;;;;;;5032750;28;20120;-65
2024/03/22 11:29:28;;;;;;;11.13;5.80;;;;;;;;;;5032494;28;20139;-62
2024/03/22 11:31:54;;;;;;;8.88;5.57;;;;;;;;;;5033962;28;20033;-64
2024/03/22 11:34:19;;;;;;;8.18;5.15;;;;;;;;;;5033864;28;20065;-63
2024/03/22 11:36:45;;;;;;;11.05;5.20;;;;;;;;;;5033846;28;20080;-62
2024/03/22 11:39:11;;;;;;;11.73;5.90;;;;;;;;;;5033946;28;20029;-65
2024/03/22 11:41:36;;;;;;;10.88;5.57;;;;;;;;;;5032282;28;20041;-63
2024/03/22 11:44:02;;;;;;;9.95;5.20;;;;;;;;;;5033773;28;20033;-62
2024/03/22 11:46:28;;;;;;;9.13;5.35;;;;;;;;;;5033486;28;20033;-65
2024/03/22 11:48:54;;;;;;;10.05;5.28;;;;;;;;;;5032344;28;20049;-64
2024/03/22 11:51:20;;;;;;;11.55;5.45;;;;;;;;;;5031974;28;20140;-63
2024/03/22 11:53:52;;;;;;;10.82;5.55;;;;;;;;;;5033319;28;20068;-63
2024/03/22 11:56:19;;;;;;;10.05;5.40;;;;;;;;;;5033107;28;20034;-64
2024/03/22 11:58:47;;;;;;;8.73;4.97;;;;;;;;;;5032164;28;20034;-63
2024/03/22 12:01:13;;;;;;;8.80;4.97;;;;;;;;;;5032078;28;20127;-64
2024/03/22 12:03:40;;;;;;;9.15;5.13;;;;;;;;;;5033469;28;20036;-63
2024/03/22 12:06:06;;;;;;;11.88;4.85;;;;;;;;;;5032984;28;20507;-62
2024/03/22 12:08:31;;;;;;;9.35;5.13;;;;;;;;;;5033136;28;20107;-63
2024/03/22 12:10:57;;;;;;;9.57;5.45;;;;;;;;;;5032684;28;20034;-64
2024/03/22 12:13:22;;;;;;;11.50;5.50;;;;;;;;;;5033171;28;20123;-64
2024/03/22 12:15:48;;;;;;;11.75;5.55;;;;;;;;;;5031917;28;20046;-64
2024/03/22 12:18:14;;;;;;;9.88;5.43;;;;;;;;;;5031690;28;20029;-63
2024/03/22 12:20:40;;;;;;;8.93;5.10;;;;;;;;;;5033297;28;20034;-64
2024/03/22 12:23:05;;;;;;;7.45;5.13;;;;;;;;;;5032886;28;20487;-63
2024/03/22 12:25:31;;;;;;;12.10;6.55;;;;;;;;;;5032522;28;20052;-62
2024/03/22 12:27:56;;;;;;;9.27;4.95;;;;;;;;;;5032943;28;20043;-63
2024/03/22 12:30:22;;;;;;;8.57;5.15;;;;;;;;;;5032441;28;20489;-62
2024/03/22 12:32:48;;;;;;;8.55;4.88;;;;;;;;;;5031689;28;20045;-62
2024/03/22 12:35:14;;;;;;;9.43;5.70;;;;;;;;;;5031216;28;20522;-62
2024/03/22 12:37:39;;;;;;;9.52;5.10;;;;;;;;;;5031732;28;20048;-63
2024/03/22 12:40:08;;;;;;;8.90;4.95;;;;;;;;;;5032064;28;20641;-61
2024/03/22 12:42:34;;;;;;;13.02;5.63;;;;;;;;;;5032429;28;20037;-62
2024/03/22 12:44:59;;;;;;;9.45;5.57;;;;;;;;;;5032443;28;20036;-62
2024/03/22 12:47:25;;;;;;;10.23;5.43;;;;;;;;;;5030710;28;20151;-64
2024/03/22 12:49:51;;;;;;;12.35;5.30;;;;;;;;;;5032222;28;20045;-63
2024/03/22 12:52:16;;;;;;;13.90;5.35;;;;;;;;;;5032023;28;20426;-62
2024/03/22 12:54:42;;;;;;;10.45;5.10;;;;;;;;;;5032223;28;20050;-62
2024/03/22 12:57:08;;;;;;;12.45;5.40;;;;;;;;;;5032488;28;20048;-63
2024/03/22 12:59:33;;;;;;;8.98;5.88;;;;;;;;;;5032465;28;20041;-64
2024/03/22 13:02:01;;;;;;;8.82;5.10;;;;;;;;;;5032005;28;20076;-62
2024/03/22 13:04:27;;;;;;;11.55;4.95;;;;;;;;;;5032337;28;20052;-63
2024/03/22 13:06:53;;;;;;;13.07;5.50;;;;;;;;;;5014501;28;20041;-64
2024/03/22 13:09:21;;;;;;;10.82;4.93;;;;;;;;;;5032283;28;20408;-62
2024/03/22 13:11:47;;;;;;;9.85;5.10;;;;;;;;;;5031962;28;20073;-61
2024/03/22 13:14:14;;;;;;;10.70;5.47;;;;;;;;;;5032441;28;20048;-62
2024/03/22 13:16:40;;;;;;;9.35;5.38;;;;;;;;;;5031689;28;20088;-63
2024/03/22 13:19:08;;;;;;;8.45;5.70;;;;;;;;;;5032210;28;20033;-63
2024/03/22 13:21:34;;;;;;;9.18;5.20;;;;;;;;;;5031650;28;20495;-62
2024/03/22 13:23:59;;;;;;;7.75;5.47;;;;;;;;;;5031976;28;20498;-62
2024/03/22 13:26:25;;;;;;;13.05;5.78;;;;;;;;;;5031938;28;20053;-62
2024/03/22 13:28:51;;;;;;;8.65;5.28;;;;;;;;;;5031541;28;20065;-62
2024/03/22 13:31:17;;;;;;;8.82;5.32;;;;;;;;;;5031206;28;20034;-64
2024/03/22 13:33:42;;;;;;;12.05;5.95;;;;;;;;;;5031553;28;20044;-62
2024/03/22 13:36:08;;;;;;;8.82;5.60;;;;;;;;;;5030142;28;20179;-63
2024/03/22 13:38:34;;;;;;;10.40;5.68;;;;;;;;;;5031396;28;20037;-63
2024/03/22 13:41:04;;;;;;;9.75;5.55;;;;;;;;;;5030045;28;20029;-63
2024/03/22 13:43:29;;;;;;;16.13;6.00;;;;;;;;;;5031354;28;20276;-65
2024/03/22 13:45:55;;;;;;;12.68;5.75;;;;;;;;;;5031420;28;20041;-63
2024/03/22 13:48:24;;;;;;;13.15;5.80;;;;;;;;;;5030138;28;20087;-63
2024/03/22 13:50:54;;;;;;;13.10;5.70;;;;;;;;;;5030075;28;20075;-62
2024/03/22 13:53:21;;;;;;;10.65;5.75;;;;;;;;;;5031200;28;20549;-64
2024/03/22 13:55:52;;;;;;;8.60;5.35;;;;;;;;;;5031419;28;20533;-64
2024/03/22 13:58:18;;;;;;;11.48;5.80;;;;;;;;;;5029810;28;20407;-62
2024/03/22 14:00:44;;;;;;;10.88;6.07;;;;;;;;;;5029684;28;20040;-63
2024/03/22 14:03:10;;;;;;;10.18;5.68;;;;;;;;;;5022468;28;20076;-62
2024/03/22 14:05:36;;;;;;;9.10;5.28;;;;;;;;;;5030782;28;20410;-60
2024/03/22 14:08:03;;;;;;;14.27;6.05;;;;;;;;;;5029134;28;20040;-59
2024/03/22 14:10:31;;;;;;;8.60;5.63;;;;;;;;;;5031282;28;20046;-61
2024/03/22 14:12:57;;;;;;;9.63;5.97;;;;;;;;;;5031082;28;20076;-62
2024/03/22 14:15:24;;;;;;;11.15;5.70;;;;;;;;;;5029915;28;20068;-61
2024/03/22 14:17:50;;;;;;;11.50;5.72;;;;;;;;;;5030366;28;20104;-62
2024/03/22 14:20:16;;;;;;;12.30;6.10;;;;;;;;;;5030292;28;20572;-62